Time;durP1;ratioP1;P1;durP2;ratioP2;P2;SDS_P1;SDS_P2;PMS_P1;PMS_P2;Temp;Humidity;BMP_temperature;BMP_pressure;BME280_temperature;BME280_humidity;BME280_pressure;Samples;Min_cycle;Max_cycle;Signal;HPM_P1;HPM_P2
2023/08/12 00:00:13;;;;;;;;;;;;;;;;;;5132381;27;20030;-70
2023/08/12 00:02:39;;;;;;;;;;;;;;;;;;5132359;27;19955;-70
2023/08/12 00:05:05;;;;;;;;;;;;;;;;;;5131932;28;20402;-70
2023/08/12 00:10:18;;;;;;;;;;;;;;;;;;5112348;27;19912;-70
2023/08/12 00:13:51;;;;;;;;;;;;;;;;;;5092115;27;19912;-71
2023/08/12 00:22:41;;;;;;;;;;;;;;;;;;5112564;27;19916;-70
2023/08/12 00:29:16;;;;;;;;;;;;;;;;;;5112376;27;20393;-71
2023/08/12 00:33:35;;;;;;;;;;;;;;;;;;5091069;28;19916;-70
2023/08/12 00:38:54;;;;;;;;;;;;;;;;;;5173647;27;19915;-70
2023/08/12 00:41:20;;;;;;;;;;;;;;;;;;5173936;27;19911;-70
2023/08/12 00:50:53;;;;;;;;;;;;;;;;;;5111854;27;19916;-70
2023/08/12 00:53:19;;;;;;;;;;;;;;;;;;5111268;28;20007;-71
2023/08/12 00:57:55;;;;;;;;;;;;;;;;;;5174377;27;19963;-70
2023/08/12 01:00:21;;;;;;;;;;;;;;;;;;5173318;27;19915;-71
2023/08/12 01:02:48;;;;;;;;;;;;;;;;;;5173938;27;20307;-70
2023/08/12 01:05:14;;;;;;;;;;;;;;;;;;5173623;27;19952;-70
2023/08/12 01:07:40;;;;;;;;;;;;;;;;;;5173206;27;20339;-70
2023/08/12 01:10:06;;;;;;;;;;;;;;;;;;5173542;27;19907;-70
2023/08/12 01:12:31;;;;;;;;;;;;;;;;;;5173682;27;19913;-71
2023/08/12 01:17:27;;;;;;;;;;;;;;;;;;5091828;27;19923;-70
2023/08/12 01:21:25;;;;;;;;;;;;;;;;;;5111603;27;19916;-70
2023/08/12 01:25:19;;;;;;;;;;;;;;;;;;5112545;27;19916;-70
2023/08/12 01:27:45;;;;;;;;;;;;;;;;;;5111653;28;20006;-70
2023/08/12 01:30:11;;;;;;;;;;;;;;;;;;5111534;28;20002;-71
2023/08/12 01:32:37;;;;;;;;;;;;;;;;;;5111663;28;20432;-70
2023/08/12 01:35:03;;;;;;;;;;;;;;;;;;5111415;28;20345;-71
2023/08/12 01:37:29;;;;;;;;;;;;;;;;;;5111531;28;20356;-70
2023/08/12 01:39:55;;;;;;;;;;;;;;;;;;5111444;28;20364;-70
2023/08/12 01:46:15;;;;;;;;;;;;;;;;;;5112549;27;19916;-70
2023/08/12 01:49:55;;;;;;;;;;;;;;;;;;5091399;27;19917;-71
2023/08/12 01:58:28;;;;;;;;;;;;;;;;;;5112380;27;19916;-72
2023/08/12 02:00:54;;;;;;;;;;;;;;;;;;5111765;28;19918;-71
2023/08/12 02:05:51;;;;;;;;;;;;;;;;;;5112382;27;19922;-72
2023/08/12 02:13:05;;;;;;;;;;;;;;;;;;5091411;27;19916;-71
2023/08/12 02:15:31;;;;;;;;;;;;;;;;;;5091541;28;20345;-72
2023/08/12 02:17:58;;;;;;;;;;;;;;;;;;5090873;28;19915;-71
2023/08/12 02:23:44;;;;;;;;;;;;;;;;;;5091959;27;19913;-70
2023/08/12 02:26:10;;;;;;;;;;;;;;;;;;5090848;28;19995;-71
2023/08/12 02:28:36;;;;;;;;;;;;;;;;;;5089955;28;20003;-70
2023/08/12 02:31:02;;;;;;;;;;;;;;;;;;5089883;28;19909;-70
2023/08/12 02:35:48;;;;;;;;;;;;;;;;;;5112550;27;19916;-72
2023/08/12 02:38:14;;;;;;;;;;;;;;;;;;5111415;28;20457;-72
2023/08/12 02:41:23;;;;;;;;;;;;;;;;;;5112580;27;19916;-72
2023/08/12 02:52:09;;;;;;;;;;;;;;;;;;5111823;27;19922;-71
2023/08/12 02:55:42;;;;;;;;;;;;;;;;;;5112276;27;19938;-70
2023/08/12 02:58:08;;;;;;;;;;;;;;;;;;5111824;28;20007;-71
2023/08/12 03:02:48;;;;;;;;;;;;;;;;;;5092016;27;19917;-71
2023/08/12 03:05:14;;;;;;;;;;;;;;;;;;5091407;28;20011;-71
2023/08/12 03:07:40;;;;;;;;;;;;;;;;;;5091005;28;20291;-71
2023/08/12 03:10:06;;;;;;;;;;;;;;;;;;5091401;28;19912;-71
2023/08/12 03:12:32;;;;;;;;;;;;;;;;;;5091359;28;19955;-71
2023/08/12 03:15:47;;;;;;;;;;;;;;;;;;5153246;27;19922;-71
2023/08/12 03:18:35;;;;;;;;;;;;;;;;;;5132497;27;20097;-71
2023/08/12 03:21:01;;;;;;;;;;;;;;;;;;5131840;28;19950;-73
2023/08/12 03:23:27;;;;;;;;;;;;;;;;;;5132223;28;20016;-72
2023/08/12 03:26:18;;;;;;;;;;;;;;;;;;5112587;27;19917;-71
2023/08/12 03:28:44;;;;;;;;;;;;;;;;;;5111372;28;20011;-71
2023/08/12 03:33:37;;;;;;;;;;;;;;;;;;5153258;27;20298;-70
2023/08/12 03:36:03;;;;;;;;;;;;;;;;;;5152706;27;20406;-71
2023/08/12 03:38:29;;;;;;;;;;;;;;;;;;5153124;27;19947;-71
2023/08/12 03:43:58;;;;;;;;;;;;;;;;;;5112022;27;19922;-71
2023/08/12 03:46:24;;;;;;;;;;;;;;;;;;5111751;28;19998;-71
2023/08/12 03:48:50;;;;;;;;;;;;;;;;;;5111317;28;20003;-71
2023/08/12 03:51:16;;;;;;;;;;;;;;;;;;5111616;28;19912;-71
2023/08/12 03:53:42;;;;;;;;;;;;;;;;;;5111802;28;19915;-70
2023/08/12 03:56:07;;;;;;;;;;;;;;;;;;5111175;28;19937;-70
2023/08/12 03:58:54;;;;;;;;;;;;;;;;;;5092313;27;19913;-70
2023/08/12 04:01:20;;;;;;;;;;;;;;;;;;5091384;28;20007;-71
2023/08/12 04:03:46;;;;;;;;;;;;;;;;;;5090936;28;19909;-71
2023/08/12 04:07:26;;;;;;;;;;;;;;;;;;5111779;27;19923;-70
2023/08/12 04:09:52;;;;;;;;;;;;;;;;;;5111316;28;19977;-70
2023/08/12 04:12:18;;;;;;;;;;;;;;;;;;5111666;28;19908;-70
2023/08/12 04:14:44;;;;;;;;;;;;;;;;;;5111637;28;20314;-71
2023/08/12 04:20:10;;;;;;;;;;;;;;;;;;5092307;27;19922;-70
2023/08/12 04:25:02;;;;;;;;;;;;;;;;;;5111579;27;20376;-71
2023/08/12 04:36:17;;;;;;;;;;;;;;;;;;5112258;27;19922;-71
2023/08/12 04:38:43;;;;;;;;;;;;;;;;;;5111431;28;20006;-71
2023/08/12 04:41:08;;;;;;;;;;;;;;;;;;5110425;28;19908;-71
2023/08/12 04:46:03;;;;;;;;;;;;;;;;;;5091330;27;19916;-70
2023/08/12 04:48:29;;;;;;;;;;;;;;;;;;5091377;28;20019;-71
2023/08/12 04:53:32;;;;;;;;;;;;;;;;;;5111772;27;19916;-70
2023/08/12 05:00:10;;;;;;;;;;;;;;;;;;5111955;27;20295;-71
2023/08/12 05:02:36;;;;;;;;;;;;;;;;;;5111409;28;20054;-71
2023/08/12 05:05:02;;;;;;;;;;;;;;;;;;5113145;28;20265;-71
2023/08/12 05:09:55;;;;;;;;;;;;;;;;;;5113843;27;19916;-70
2023/08/12 05:13:42;;;;;;;;;;;;;;;;;;5092776;27;19918;-72
2023/08/12 05:19:55;;;;;;;;;;;;;;;;;;5112192;27;19916;-71
2023/08/12 05:24:05;;;;;;;;;;;;;;;;;;5174229;27;20434;-72
2023/08/12 05:26:31;;;;;;;;;;;;;;;;;;5173724;27;19947;-71
2023/08/12 05:30:41;;;;;;;;;;;;;;;;;;5091761;27;19916;-71
2023/08/12 05:33:07;;;;;;;;;;;;;;;;;;5091603;28;20004;-71
2023/08/12 05:35:33;;;;;;;;;;;;;;;;;;5090903;28;20341;-71
2023/08/12 05:37:59;;;;;;;;;;;;;;;;;;5091241;28;19909;-71
2023/08/12 05:41:34;;;;;;;;;;;;;;;;;;5152747;27;20375;-70
2023/08/12 05:47:13;;;;;;;;;;;;;;;;;;5112362;27;19938;-70
2023/08/12 05:49:39;;;;;;;;;;;;;;;;;;5111211;28;20007;-71
2023/08/12 05:52:05;;;;;;;;;;;;;;;;;;5111500;28;19969;-70
2023/08/12 05:54:31;;;;;;;;;;;;;;;;;;5111863;28;19915;-70
2023/08/12 06:03:02;;;;;;;;;;;;;;;;;;5091449;27;19916;-71
2023/08/12 06:05:27;;;;;;;;;;;;;;;;;;5091304;28;20349;-71
2023/08/12 06:07:53;;;;;;;;;;;;;;;;;;5091216;28;19914;-71
2023/08/12 06:10:19;;;;;;;;;;;;;;;;;;5090946;28;19908;-71
2023/08/12 06:14:14;;;;;;;;;;;;;;;;;;5092297;27;19916;-71
2023/08/12 06:16:40;;;;;;;;;;;;;;;;;;5091163;28;20006;-71
2023/08/12 06:24:11;;;;;;;;;;;;;;;;;;5091556;28;19913;-72
2023/08/12 06:26:37;;;;;;;;;;;;;;;;;;5091325;28;20023;-71
2023/08/12 06:29:03;;;;;;;;;;;;;;;;;;5091336;28;20009;-72
2023/08/12 06:32:59;;;;;;;;;;;;;;;;;;5091725;27;20287;-71
2023/08/12 06:35:25;;;;;;;;;;;;;;;;;;5091974;28;20278;-71
2023/08/12 06:43:27;;;;;;;;;;;;;;;;;;5111918;27;19916;-71
2023/08/12 06:45:53;;;;;;;;;;;;;;;;;;5111350;28;19998;-72
2023/08/12 06:48:19;;;;;;;;;;;;;;;;;;5110416;28;19908;-73
2023/08/12 06:54:35;;;;;;;;;;;;;;;;;;5091768;27;19923;-71
2023/08/12 06:57:27;;;;;;;;;;;;;;;;;;5112391;27;19912;-71
2023/08/12 07:04:28;;;;;;;;;;;;;;;;;;5111811;27;19923;-71
2023/08/12 07:06:54;;;;;;;;;;;;;;;;;;5111250;28;20002;-71
2023/08/12 07:09:20;;;;;;;;;;;;;;;;;;5111627;28;19961;-71
2023/08/12 07:11:46;;;;;;;;;;;;;;;;;;5110384;28;20371;-71
2023/08/12 07:14:12;;;;;;;;;;;;;;;;;;5111370;28;20438;-71
2023/08/12 07:16:38;;;;;;;;;;;;;;;;;;5111685;28;19912;-71
2023/08/12 07:20:34;;;;;;;;;;;;;;;;;;5091518;28;19917;-70
2023/08/12 07:24:42;;;;;;;;;;;;;;;;;;5096610;27;2194482;-71
2023/08/12 07:27:08;;;;;;;;;;;;;;;;;;5154624;27;19914;-71
2023/08/12 07:29:34;;;;;;;;;;;;;;;;;;5173930;27;19911;-71
2023/08/12 07:33:12;;;;;;;;;;;;;;;;;;5071427;28;19923;-73
2023/08/12 07:36:32;;;;;;;;;;;;;;;;;;5112310;27;19922;-71
2023/08/12 07:38:58;;;;;;;;;;;;;;;;;;5110354;28;19912;-71
2023/08/12 07:41:27;;;;;;;;;;;;;;;;;;5111242;28;19908;-72
2023/08/12 07:43:53;;;;;;;;;;;;;;;;;;5111615;28;19965;-73
2023/08/12 07:46:19;;;;;;;;;;;;;;;;;;5111607;28;19911;-72
2023/08/12 07:48:45;;;;;;;;;;;;;;;;;;5111101;28;20389;-71
2023/08/12 07:51:11;;;;;;;;;;;;;;;;;;5110180;28;19908;-71
2023/08/12 07:53:37;;;;;;;;;;;;;;;;;;5111361;28;19955;-71
2023/08/12 07:56:03;;;;;;;;;;;;;;;;;;5110883;28;19927;-71
2023/08/12 07:58:29;;;;;;;;;;;;;;;;;;5111272;28;19908;-72
2023/08/12 08:00:54;;;;;;;;;;;;;;;;;;5111304;28;20426;-71
2023/08/12 08:03:20;;;;;;;;;;;;;;;;;;5111086;28;20322;-71
2023/08/12 08:05:47;;;;;;;;;;;;;;;;;;5111362;28;19912;-71
2023/08/12 08:08:12;;;;;;;;;;;;;;;;;;5111110;28;20444;-71
2023/08/12 08:10:38;;;;;;;;;;;;;;;;;;5110641;28;19951;-71
2023/08/12 08:13:04;;;;;;;;;;;;;;;;;;5111175;28;19908;-71
2023/08/12 08:15:30;;;;;;;;;;;;;;;;;;5110872;28;19916;-71
2023/08/12 08:18:12;;;;;;;;;;;;;;;;;;5112226;27;19916;-71
2023/08/12 08:20:38;;;;;;;;;;;;;;;;;;5110865;28;20002;-71
2023/08/12 08:23:04;;;;;;;;;;;;;;;;;;5111954;28;20622;-71
2023/08/12 08:27:42;;;;;;;;;;;;;;;;;;5153565;27;19912;-71
2023/08/12 08:30:08;;;;;;;;;;;;;;;;;;5152713;27;19916;-71
2023/08/12 08:32:34;;;;;;;;;;;;;;;;;;5134396;27;19907;-71
2023/08/12 08:35:00;;;;;;;;;;;;;;;;;;5154462;27;19960;-72
2023/08/12 08:37:26;;;;;;;;;;;;;;;;;;5152747;27;19990;-71
2023/08/12 08:39:52;;;;;;;;;;;;;;;;;;5152647;27;19915;-71
2023/08/12 08:42:18;;;;;;;;;;;;;;;;;;5152702;27;19907;-71
2023/08/12 08:44:44;;;;;;;;;;;;;;;;;;5152125;27;19907;-72
2023/08/12 08:52:20;;;;;;;;;;;;;;;;;;5051281;28;19917;-71
2023/08/12 08:55:51;;;;;;;;;;;;;;;;;;5112255;27;19912;-71
2023/08/12 08:58:17;;;;;;;;;;;;;;;;;;5110706;28;20356;-72
2023/08/12 09:00:43;;;;;;;;;;;;;;;;;;5112073;28;19915;-72
2023/08/12 09:05:46;;;;;;;;;;;;;;;;;;5173811;27;20002;-71
2023/08/12 09:08:12;;;;;;;;;;;;;;;;;;5173888;27;19911;-72
2023/08/12 09:10:39;;;;;;;;;;;;;;;;;;5173878;27;19914;-72
2023/08/12 09:13:05;;;;;;;;;;;;;;;;;;5173380;27;19907;-72
2023/08/12 09:15:31;;;;;;;;;;;;;;;;;;5173591;27;20375;-72
2023/08/12 09:18:46;;;;;;;;;;;;;;;;;;5091921;27;19916;-71
2023/08/12 09:21:12;;;;;;;;;;;;;;;;;;5090884;28;20003;-71
2023/08/12 09:23:38;;;;;;;;;;;;;;;;;;5091359;28;19909;-71
2023/08/12 09:26:04;;;;;;;;;;;;;;;;;;5090735;28;19909;-72
2023/08/12 09:28:30;;;;;;;;;;;;;;;;;;5091205;28;19934;-72
2023/08/12 09:30:56;;;;;;;;;;;;;;;;;;5091273;28;19956;-72
2023/08/12 09:33:22;;;;;;;;;;;;;;;;;;5089555;28;19915;-72
2023/08/12 09:35:48;;;;;;;;;;;;;;;;;;5091018;28;19909;-72
2023/08/12 09:38:14;;;;;;;;;;;;;;;;;;5091332;28;20020;-72
2023/08/12 09:40:40;;;;;;;;;;;;;;;;;;5090532;28;19908;-72
2023/08/12 09:43:05;;;;;;;;;;;;;;;;;;5089636;28;20066;-72
2023/08/12 09:45:32;;;;;;;;;;;;;;;;;;5091480;28;20281;-72
2023/08/12 09:47:58;;;;;;;;;;;;;;;;;;5090437;28;19954;-73
2023/08/12 09:50:25;;;;;;;;;;;;;;;;;;5089609;28;19908;-72
2023/08/12 09:52:51;;;;;;;;;;;;;;;;;;5089387;28;19908;-71
2023/08/12 09:55:17;;;;;;;;;;;;;;;;;;5089106;28;19916;-72
2023/08/12 09:57:46;;;;;;;;;;;;;;;;;;5090677;28;19920;-72
2023/08/12 10:00:16;;;;;;;;;;;;;;;;;;5089714;28;20258;-72
2023/08/12 10:02:42;;;;;;;;;;;;;;;;;;5090367;28;20000;-72
2023/08/12 10:05:08;;;;;;;;;;;;;;;;;;5090602;28;19944;-72
2023/08/12 10:07:34;;;;;;;;;;;;;;;;;;5090497;28;19913;-72
2023/08/12 10:10:00;;;;;;;;;;;;;;;;;;5088834;28;20007;-72
2023/08/12 10:12:26;;;;;;;;;;;;;;;;;;5090407;28;19912;-72
2023/08/12 10:14:52;;;;;;;;;;;;;;;;;;5090395;28;19908;-72
2023/08/12 10:17:18;;;;;;;;;;;;;;;;;;5098127;28;19920;-71
2023/08/12 10:19:45;;;;;;;;;;;;;;;;;;5110668;28;19996;-72
2023/08/12 10:22:11;;;;;;;;;;;;;;;;;;5092310;28;19908;-72
2023/08/12 10:24:36;;;;;;;;;;;;;;;;;;5110192;28;19918;-72
2023/08/12 10:27:02;;;;;;;;;;;;;;;;;;5110685;28;19908;-73
2023/08/12 10:29:28;;;;;;;;;;;;;;;;;;5081995;28;19909;-72
2023/08/12 10:31:54;;;;;;;;;;;;;;;;;;5096890;28;19999;-72
2023/08/12 10:34:20;;;;;;;;;;;;;;;;;;5096762;28;20292;-72
2023/08/12 10:36:47;;;;;;;;;;;;;;;;;;5096866;28;19916;-72
2023/08/12 10:39:13;;;;;;;;;;;;;;;;;;5097013;28;19912;-73
2023/08/12 10:41:39;;;;;;;;;;;;;;;;;;5097010;28;19915;-72
2023/08/12 10:44:05;;;;;;;;;;;;;;;;;;5096502;28;20281;-73
2023/08/12 10:46:31;;;;;;;;;;;;;;;;;;5097055;28;19931;-72
2023/08/12 10:48:58;;;;;;;;;;;;;;;;;;5096520;28;20007;-72
2023/08/12 10:51:24;;;;;;;;;;;;;;;;;;5096264;28;19915;-72
2023/08/12 10:53:50;;;;;;;;;;;;;;;;;;5097267;28;20344;-73
2023/08/12 10:56:16;;;;;;;;;;;;;;;;;;5096674;28;20312;-73
2023/08/12 10:58:42;;;;;;;;;;;;;;;;;;5096443;28;20422;-72
2023/08/12 11:01:08;;;;;;;;;;;;;;;;;;5096611;28;20276;-72
2023/08/12 11:03:34;;;;;;;;;;;;;;;;;;5096360;28;20265;-72
2023/08/12 11:06:00;;;;;;;;;;;;;;;;;;5095798;28;19985;-72
2023/08/12 11:08:26;;;;;;;;;;;;;;;;;;5096223;28;19912;-72
2023/08/12 11:10:52;;;;;;;;;;;;;;;;;;5096211;28;20372;-72
2023/08/12 11:13:18;;;;;;;;;;;;;;;;;;5095780;28;19915;-72
2023/08/12 11:15:47;;;;;;;;;;;;;;;;;;5096474;28;19908;-73
2023/08/12 11:18:14;;;;;;;;;;;;;;;;;;5096169;28;19927;-73
2023/08/12 11:20:40;;;;;;;;;;;;;;;;;;5095931;28;19908;-72
2023/08/12 11:23:06;;;;;;;;;;;;;;;;;;5096320;28;20078;-72
2023/08/12 11:25:31;;;;;;;;;;;;;;;;;;5078087;28;19908;-72
2023/08/12 11:27:57;;;;;;;;;;;;;;;;;;5095992;28;19908;-73
2023/08/12 11:30:23;;;;;;;;;;;;;;;;;;5096679;28;19915;-72
2023/08/12 11:32:49;;;;;;;;;;;;;;;;;;5096417;28;19908;-72
2023/08/12 11:35:15;;;;;;;;;;;;;;;;;;5078307;28;19961;-72
2023/08/12 11:37:41;;;;;;;;;;;;;;;;;;5078701;28;19970;-72
2023/08/12 11:40:08;;;;;;;;;;;;;;;;;;5094837;28;19908;-73
2023/08/12 11:42:34;;;;;;;;;;;;;;;;;;5096182;28;19908;-72
2023/08/12 11:45:00;;;;;;;;;;;;;;;;;;5097007;28;19953;-72
2023/08/12 11:47:26;;;;;;;;;;;;;;;;;;5095510;28;19947;-72
2023/08/12 11:49:52;;;;;;;;;;;;;;;;;;5095846;28;20265;-72
2023/08/12 11:52:18;;;;;;;;;;;;;;;;;;5095902;28;19908;-72
2023/08/12 11:54:44;;;;;;;;;;;;;;;;;;5076944;28;19956;-73
2023/08/12 11:57:10;;;;;;;;;;;;;;;;;;5095191;28;20012;-72
2023/08/12 11:59:36;;;;;;;;;;;;;;;;;;5095238;28;19919;-72
2023/08/12 12:02:02;;;;;;;;;;;;;;;;;;5094786;28;19908;-73
2023/08/12 12:04:28;;;;;;;;;;;;;;;;;;5095074;28;19998;-72
2023/08/12 12:06:54;;;;;;;;;;;;;;;;;;5094892;28;19916;-72
2023/08/12 12:09:21;;;;;;;;;;;;;;;;;;5094511;28;19909;-72
2023/08/12 12:11:47;;;;;;;;;;;;;;;;;;5095156;28;20006;-72
2023/08/12 12:14:12;;;;;;;;;;;;;;;;;;5076731;28;20023;-72
2023/08/12 12:16:41;;;;;;;;;;;;;;;;;;5094325;28;19927;-72
2023/08/12 12:19:07;;;;;;;;;;;;;;;;;;5095849;28;19916;-71
2023/08/12 12:21:33;;;;;;;;;;;;;;;;;;5095039;28;19912;-72
2023/08/12 12:23:59;;;;;;;;;;;;;;;;;;5094621;28;19955;-73
2023/08/12 12:26:25;;;;;;;;;;;;;;;;;;5094612;28;19908;-73
2023/08/12 12:28:51;;;;;;;;;;;;;;;;;;5095831;28;19908;-73
2023/08/12 12:31:17;;;;;;;;;;;;;;;;;;5095131;28;19915;-73
2023/08/12 12:33:43;;;;;;;;;;;;;;;;;;5076583;28;20421;-73
2023/08/12 12:36:09;;;;;;;;;;;;;;;;;;5094611;28;19999;-72
2023/08/12 12:38:35;;;;;;;;;;;;;;;;;;5094411;28;19916;-73
2023/08/12 12:41:01;;;;;;;;;;;;;;;;;;5094644;28;19908;-73
2023/08/12 12:43:27;;;;;;;;;;;;;;;;;;5094137;28;20501;-73
2023/08/12 12:45:52;;;;;;;;;;;;;;;;;;5094355;28;19931;-72
2023/08/12 12:48:18;;;;;;;;;;;;;;;;;;5076151;28;19908;-73
2023/08/12 12:50:44;;;;;;;;;;;;;;;;;;5093794;28;19935;-72
2023/08/12 12:53:10;;;;;;;;;;;;;;;;;;5094052;28;19989;-72
2023/08/12 12:55:36;;;;;;;;;;;;;;;;;;5094299;28;19918;-72
2023/08/12 12:58:02;;;;;;;;;;;;;;;;;;5093924;28;19973;-72
2023/08/12 13:00:28;;;;;;;;;;;;;;;;;;5094073;28;19915;-72
2023/08/12 13:02:54;;;;;;;;;;;;;;;;;;5075819;28;19912;-73
2023/08/12 13:05:20;;;;;;;;;;;;;;;;;;5075546;28;19990;-72
2023/08/12 13:07:46;;;;;;;;;;;;;;;;;;5076594;28;19919;-72
2023/08/12 13:10:12;;;;;;;;;;;;;;;;;;5094599;28;19908;-72
2023/08/12 13:12:38;;;;;;;;;;;;;;;;;;5094447;28;20001;-73
2023/08/12 13:15:04;;;;;;;;;;;;;;;;;;5094324;28;19908;-73
2023/08/12 13:17:30;;;;;;;;;;;;;;;;;;5094429;28;19920;-72
2023/08/12 13:19:56;;;;;;;;;;;;;;;;;;5094163;28;20014;-72
2023/08/12 13:22:22;;;;;;;;;;;;;;;;;;5094958;28;19921;-73
2023/08/12 13:24:47;;;;;;;;;;;;;;;;;;5094309;28;19908;-73
2023/08/12 13:27:14;;;;;;;;;;;;;;;;;;5093904;28;19995;-73
2023/08/12 13:29:40;;;;;;;;;;;;;;;;;;5077003;28;20357;-73
2023/08/12 13:32:06;;;;;;;;;;;;;;;;;;5094832;28;19919;-73
2023/08/12 13:34:32;;;;;;;;;;;;;;;;;;5093485;28;19909;-73
2023/08/12 13:36:58;;;;;;;;;;;;;;;;;;5093789;28;19931;-73
2023/08/12 13:39:24;;;;;;;;;;;;;;;;;;5093802;28;19912;-73
2023/08/12 13:41:50;;;;;;;;;;;;;;;;;;5094378;28;19908;-72
2023/08/12 13:44:16;;;;;;;;;;;;;;;;;;5094150;28;19915;-74
2023/08/12 13:46:42;;;;;;;;;;;;;;;;;;5093613;28;19915;-72
2023/08/12 13:49:07;;;;;;;;;;;;;;;;;;5093787;28;19908;-73
2023/08/12 13:51:33;;;;;;;;;;;;;;;;;;5093628;28;19912;-73
2023/08/12 13:53:59;;;;;;;;;;;;;;;;;;5093075;28;19912;-73
2023/08/12 13:56:25;;;;;;;;;;;;;;;;;;5093562;28;19915;-72
2023/08/12 13:58:51;;;;;;;;;;;;;;;;;;5093851;28;20010;-73
2023/08/12 14:01:17;;;;;;;;;;;;;;;;;;5093278;28;19908;-73
2023/08/12 14:03:43;;;;;;;;;;;;;;;;;;5094878;28;19953;-72
2023/08/12 14:06:09;;;;;;;;;;;;;;;;;;5079134;28;19955;-73
2023/08/12 14:08:35;;;;;;;;;;;;;;;;;;5096899;28;19908;-72
2023/08/12 14:11:01;;;;;;;;;;;;;;;;;;5097400;28;19909;-73
2023/08/12 14:13:27;;;;;;;;;;;;;;;;;;5097417;28;19952;-73
2023/08/12 14:15:53;;;;;;;;;;;;;;;;;;5096690;28;20041;-73
2023/08/12 14:18:19;;;;;;;;;;;;;;;;;;5096768;28;19920;-73
2023/08/12 14:20:45;;;;;;;;;;;;;;;;;;5097430;28;19916;-73
2023/08/12 14:23:11;;;;;;;;;;;;;;;;;;5078363;28;19914;-73
2023/08/12 14:25:37;;;;;;;;;;;;;;;;;;5096972;28;19908;-74
2023/08/12 14:28:03;;;;;;;;;;;;;;;;;;5096934;28;19908;-72
2023/08/12 14:30:28;;;;;;;;;;;;;;;;;;5078339;28;19915;-74
2023/08/12 14:32:54;;;;;;;;;;;;;;;;;;5078652;28;20383;-72
2023/08/12 14:35:20;;;;;;;;;;;;;;;;;;5096687;28;20368;-72
2023/08/12 14:37:46;;;;;;;;;;;;;;;;;;5096450;28;19920;-73
2023/08/12 14:40:12;;;;;;;;;;;;;;;;;;5096627;28;19934;-72
2023/08/12 14:42:38;;;;;;;;;;;;;;;;;;5096347;28;19915;-72
2023/08/12 14:45:04;;;;;;;;;;;;;;;;;;5096887;28;20320;-73
2023/08/12 14:47:30;;;;;;;;;;;;;;;;;;5096860;28;19908;-73
2023/08/12 14:49:56;;;;;;;;;;;;;;;;;;5096167;28;20002;-72
2023/08/12 14:52:22;;;;;;;;;;;;;;;;;;5096871;28;19908;-72
2023/08/12 14:54:48;;;;;;;;;;;;;;;;;;5078622;28;19909;-72
2023/08/12 14:57:14;;;;;;;;;;;;;;;;;;5096535;28;20062;-72
2023/08/12 14:59:40;;;;;;;;;;;;;;;;;;5096308;28;19953;-72
2023/08/12 15:02:06;;;;;;;;;;;;;;;;;;5096269;28;19912;-72
2023/08/12 15:04:32;;;;;;;;;;;;;;;;;;5095744;28;19916;-72
2023/08/12 15:06:58;;;;;;;;;;;;;;;;;;5078121;28;19940;-72
2023/08/12 15:09:24;;;;;;;;;;;;;;;;;;5096238;28;19908;-72
2023/08/12 15:11:50;;;;;;;;;;;;;;;;;;5095782;28;20400;-72
2023/08/12 15:14:16;;;;;;;;;;;;;;;;;;5095939;28;19912;-72
2023/08/12 15:16:41;;;;;;;;;;;;;;;;;;5095704;28;19916;-72
2023/08/12 15:19:07;;;;;;;;;;;;;;;;;;5095569;28;19970;-72
2023/08/12 15:21:33;;;;;;;;;;;;;;;;;;5096003;28;19916;-72
2023/08/12 15:23:59;;;;;;;;;;;;;;;;;;5095853;28;19910;-72
2023/08/12 15:26:25;;;;;;;;;;;;;;;;;;5077253;28;19958;-72
2023/08/12 15:28:51;;;;;;;;;;;;;;;;;;5095859;28;19999;-72
2023/08/12 15:31:17;;;;;;;;;;;;;;;;;;5096036;28;20268;-72
2023/08/12 15:33:43;;;;;;;;;;;;;;;;;;5095301;28;19995;-74
2023/08/12 15:36:09;;;;;;;;;;;;;;;;;;5095692;28;19915;-74
2023/08/12 15:38:35;;;;;;;;;;;;;;;;;;5077382;28;19916;-73
2023/08/12 15:41:01;;;;;;;;;;;;;;;;;;5095181;28;20041;-73
2023/08/12 15:43:27;;;;;;;;;;;;;;;;;;5095585;28;19908;-73
2023/08/12 15:45:53;;;;;;;;;;;;;;;;;;5095427;28;19908;-72
2023/08/12 15:48:19;;;;;;;;;;;;;;;;;;5077297;28;19908;-72
2023/08/12 15:50:45;;;;;;;;;;;;;;;;;;5095567;28;19908;-73
2023/08/12 15:53:11;;;;;;;;;;;;;;;;;;5094967;28;19908;-73
2023/08/12 15:55:37;;;;;;;;;;;;;;;;;;5095748;28;19920;-73
2023/08/12 15:58:03;;;;;;;;;;;;;;;;;;5095162;28;20392;-73
2023/08/12 16:00:28;;;;;;;;;;;;;;;;;;5094951;28;19915;-72
2023/08/12 16:02:54;;;;;;;;;;;;;;;;;;5095163;28;19912;-72
2023/08/12 16:05:20;;;;;;;;;;;;;;;;;;5095162;28;19951;-72
2023/08/12 16:07:46;;;;;;;;;;;;;;;;;;5094665;28;19958;-72
2023/08/12 16:10:12;;;;;;;;;;;;;;;;;;5095626;28;20272;-72
2023/08/12 16:12:38;;;;;;;;;;;;;;;;;;5094907;28;19999;-72
2023/08/12 16:15:04;;;;;;;;;;;;;;;;;;5094459;28;19908;-72
2023/08/12 16:17:30;;;;;;;;;;;;;;;;;;5076335;28;19920;-73
2023/08/12 16:19:56;;;;;;;;;;;;;;;;;;5094779;28;20318;-73
2023/08/12 16:22:22;;;;;;;;;;;;;;;;;;5094456;28;20280;-73
2023/08/12 16:24:48;;;;;;;;;;;;;;;;;;5076532;28;20336;-72
2023/08/12 16:27:14;;;;;;;;;;;;;;;;;;5075782;28;19908;-72
2023/08/12 16:29:40;;;;;;;;;;;;;;;;;;5094314;28;19986;-73
2023/08/12 16:32:06;;;;;;;;;;;;;;;;;;5094643;28;20003;-73
2023/08/12 16:34:32;;;;;;;;;;;;;;;;;;5094632;28;19908;-72
2023/08/12 16:36:58;;;;;;;;;;;;;;;;;;5075931;28;19961;-73
2023/08/12 16:39:25;;;;;;;;;;;;;;;;;;5094527;28;19912;-73
2023/08/12 16:41:51;;;;;;;;;;;;;;;;;;5076650;28;20288;-72
2023/08/12 16:44:17;;;;;;;;;;;;;;;;;;5094148;28;19912;-73
2023/08/12 16:46:42;;;;;;;;;;;;;;;;;;5095953;28;19974;-72
2023/08/12 16:49:08;;;;;;;;;;;;;;;;;;5076415;28;20005;-73
2023/08/12 16:51:34;;;;;;;;;;;;;;;;;;5094124;28;19908;-72
2023/08/12 16:54:00;;;;;;;;;;;;;;;;;;5094235;28;19962;-72
2023/08/12 16:56:26;;;;;;;;;;;;;;;;;;5093966;28;19916;-72
2023/08/12 16:58:52;;;;;;;;;;;;;;;;;;5094182;28;19916;-72
2023/08/12 17:01:18;;;;;;;;;;;;;;;;;;5076271;28;19916;-72
2023/08/12 17:06:14;;;;;;;;;;;;;;;;;;5153129;27;19922;-72
2023/08/12 17:08:40;;;;;;;;;;;;;;;;;;5153066;27;20375;-72
2023/08/12 17:11:06;;;;;;;;;;;;;;;;;;5152591;27;19907;-71
2023/08/12 17:13:32;;;;;;;;;;;;;;;;;;5152864;27;19955;-71
2023/08/12 17:18:07;;;;;;;;;;;;;;;;;;5091134;27;19916;-71
2023/08/12 17:20:33;;;;;;;;;;;;;;;;;;5090432;28;20002;-72
2023/08/12 17:22:59;;;;;;;;;;;;;;;;;;5090536;28;20321;-72
2023/08/12 17:25:25;;;;;;;;;;;;;;;;;;5091213;28;19909;-72
2023/08/12 17:27:51;;;;;;;;;;;;;;;;;;5091470;28;19915;-72
2023/08/12 17:30:17;;;;;;;;;;;;;;;;;;5091422;28;19974;-72
2023/08/12 17:32:43;;;;;;;;;;;;;;;;;;5091030;28;19912;-72
2023/08/12 17:35:09;;;;;;;;;;;;;;;;;;5090065;28;19908;-72
2023/08/12 17:37:35;;;;;;;;;;;;;;;;;;5091695;28;19923;-71
2023/08/12 17:40:01;;;;;;;;;;;;;;;;;;5090867;28;19909;-71
2023/08/12 17:42:49;;;;;;;;;;;;;;;;;;5112464;27;19916;-71
2023/08/12 17:45:15;;;;;;;;;;;;;;;;;;5111991;28;20003;-72
2023/08/12 17:47:41;;;;;;;;;;;;;;;;;;5111715;28;19908;-71
2023/08/12 17:50:08;;;;;;;;;;;;;;;;;;5111735;28;19977;-71
2023/08/12 17:52:42;;;;;;;;;;;;;;;;;;5091749;27;19922;-71
2023/08/12 17:55:08;;;;;;;;;;;;;;;;;;5091407;28;20347;-71
2023/08/12 17:57:34;;;;;;;;;;;;;;;;;;5091265;28;19954;-71
2023/08/12 18:00:00;;;;;;;;;;;;;;;;;;5090953;28;19908;-71
2023/08/12 18:02:26;;;;;;;;;;;;;;;;;;5091511;28;19908;-72
2023/08/12 18:04:52;;;;;;;;;;;;;;;;;;5091654;28;19920;-71
2023/08/12 18:07:17;;;;;;;;;;;;;;;;;;5089896;28;19962;-73
2023/08/12 18:09:43;;;;;;;;;;;;;;;;;;5091824;28;19948;-72
2023/08/12 18:12:09;;;;;;;;;;;;;;;;;;5091730;28;19916;-72
2023/08/12 18:14:35;;;;;;;;;;;;;;;;;;5091248;28;19954;-72
2023/08/12 18:17:01;;;;;;;;;;;;;;;;;;5091323;28;19908;-72
2023/08/12 18:19:27;;;;;;;;;;;;;;;;;;5090953;28;19912;-71
2023/08/12 18:21:53;;;;;;;;;;;;;;;;;;5089075;28;20026;-72
2023/08/12 18:26:13;;;;;;;;;;;;;;;;;;5112441;27;20283;-71
2023/08/12 18:28:39;;;;;;;;;;;;;;;;;;5111590;28;20007;-73
2023/08/12 18:31:04;;;;;;;;;;;;;;;;;;5112466;28;19955;-72
2023/08/12 18:33:30;;;;;;;;;;;;;;;;;;5111709;28;19908;-72
2023/08/12 18:35:56;;;;;;;;;;;;;;;;;;5110999;28;19908;-72
2023/08/12 18:38:22;;;;;;;;;;;;;;;;;;5111405;28;19915;-74
2023/08/12 18:40:48;;;;;;;;;;;;;;;;;;5111686;28;20425;-72
2023/08/12 18:43:14;;;;;;;;;;;;;;;;;;5111548;28;19973;-72
2023/08/12 18:45:40;;;;;;;;;;;;;;;;;;5111742;28;19970;-73
2023/08/12 18:48:06;;;;;;;;;;;;;;;;;;5111905;28;19908;-72
2023/08/12 18:50:32;;;;;;;;;;;;;;;;;;5111483;28;20360;-72
2023/08/12 18:54:55;;;;;;;;;;;;;;;;;;5112214;27;20386;-72
2023/08/12 18:57:37;;;;;;;;;;;;;;;;;;5091586;27;19923;-72
2023/08/12 19:00:35;;;;;;;;;;;;;;;;;;5112342;27;19938;-73
2023/08/12 19:03:01;;;;;;;;;;;;;;;;;;5110864;28;19994;-72
2023/08/12 19:05:28;;;;;;;;;;;;;;;;;;5111914;28;19954;-72
2023/08/12 19:07:54;;;;;;;;;;;;;;;;;;5112024;28;19950;-72
2023/08/12 19:12:51;;;;;;;;;;;;;;;;;;5112770;27;19918;-71
2023/08/12 19:15:17;;;;;;;;;;;;;;;;;;5112336;28;19999;-71
2023/08/12 19:17:43;;;;;;;;;;;;;;;;;;5111622;28;20432;-71
2023/08/12 19:22:06;;;;;;;;;;;;;;;;;;5092183;27;19918;-70
2023/08/12 19:24:32;;;;;;;;;;;;;;;;;;5089747;28;20007;-71
2023/08/12 19:26:58;;;;;;;;;;;;;;;;;;5091338;28;19908;-73
2023/08/12 19:32:46;;;;;;;;;;;;;;;;;;5111580;27;19916;-72
2023/08/12 19:35:34;;;;;;;;;;;;;;;;;;5092014;27;19923;-73
2023/08/12 19:38:00;;;;;;;;;;;;;;;;;;5091394;28;19972;-73